createdAt,value
2024-04-08T05:12:21.283Z,18.01
2024-04-08T05:32:28.992Z,18.01
2024-04-08T05:37:34.475Z,18.01
2024-04-08T05:42:39.870Z,18.01
2024-04-08T05:47:55.565Z,18.01
2024-04-08T05:53:01.040Z,18.00
2024-04-08T05:58:08.716Z,18.00
2024-04-08T06:03:16.774Z,18.00
2024-04-08T06:08:22.203Z,17.99
2024-04-08T06:13:28.940Z,17.98
2024-04-08T06:18:37.063Z,17.99
2024-04-08T06:23:42.521Z,17.99
2024-04-08T06:28:47.985Z,17.99
2024-04-08T06:33:56.446Z,17.98
2024-04-08T06:39:02.740Z,17.99
2024-04-08T06:44:09.020Z,17.98
2024-04-08T06:49:17.140Z,17.98
2024-04-08T06:54:22.835Z,17.98
2024-04-08T06:59:29.480Z,17.97
2024-04-08T07:04:37.643Z,17.96
2024-04-08T07:09:43.153Z,17.97
2024-04-08T07:14:48.719Z,17.97
2024-04-08T07:19:56.814Z,17.96
2024-04-08T07:25:02.240Z,17.95
2024-04-08T07:30:08.190Z,17.96
2024-04-08T07:35:24.412Z,17.96
2024-04-08T07:40:31.514Z,17.95
2024-04-08T07:45:36.917Z,17.95
2024-04-08T07:50:45.113Z,17.95
2024-04-08T07:55:50.863Z,17.94
2024-04-08T08:01:02.677Z,17.94
2024-04-08T08:06:11.234Z,17.95
2024-04-08T08:11:17.061Z,17.93
2024-04-08T08:16:22.546Z,17.93
2024-04-08T08:21:30.586Z,17.93
2024-04-08T08:26:36.070Z,17.92
2024-04-08T08:31:41.936Z,17.91
2024-04-08T08:36:51.541Z,17.92
2024-04-08T08:42:00.126Z,17.92
2024-04-08T08:47:06.200Z,17.91
2024-04-08T08:52:14.395Z,17.92
2024-04-08T08:57:20.114Z,17.90
2024-04-08T09:02:25.526Z,17.91
2024-04-08T09:07:33.624Z,17.92
2024-04-08T09:12:39.101Z,17.91
2024-04-08T09:17:44.570Z,17.91
2024-04-08T09:22:53.111Z,17.90
2024-04-08T09:33:10.155Z,17.88
2024-04-08T09:38:19.504Z,17.87
2024-04-08T09:43:24.943Z,17.88
2024-04-08T09:48:31.890Z,17.88
2024-04-08T09:53:40.009Z,17.88
2024-04-08T09:58:46.031Z,17.87
2024-04-08T10:03:54.145Z,17.87
2024-04-08T10:09:02.710Z,17.88
2024-04-08T10:14:19.909Z,17.86
2024-04-08T10:19:25.321Z,17.83
2024-04-08T10:24:39.476Z,17.81
2024-04-08T10:29:46.557Z,17.81
2024-04-08T10:34:52.048Z,17.81
2024-04-08T10:40:04.711Z,17.82
2024-04-08T10:45:10.237Z,17.82
2024-04-08T10:50:16.087Z,17.82
2024-04-08T10:55:24.490Z,17.83
2024-04-08T11:00:31.171Z,17.84
2024-04-08T11:05:36.648Z,17.83
2024-04-08T11:10:48.138Z,17.85
2024-04-08T11:15:54.592Z,17.82
2024-04-08T11:21:00.060Z,17.83
2024-04-08T11:26:08.827Z,17.83
2024-04-08T11:31:14.447Z,17.82
2024-04-08T11:36:20.208Z,17.81
2024-04-08T11:41:29.107Z,17.82
2024-04-08T11:46:35.086Z,17.83
2024-04-08T11:51:40.571Z,17.82
2024-04-08T11:56:48.714Z,17.81
2024-04-08T12:01:54.146Z,17.81
2024-04-08T12:06:59.825Z,17.82
2024-04-08T12:12:10.657Z,17.80
2024-04-08T12:17:16.093Z,17.80
2024-04-08T12:22:22.002Z,17.81
2024-04-08T12:27:32.177Z,17.80
2024-04-08T12:32:37.599Z,17.80
2024-04-08T12:37:43.011Z,17.81
2024-04-08T12:42:51.365Z,17.79
2024-04-08T12:47:57.244Z,17.80
2024-04-08T12:53:03.142Z,17.79
2024-04-08T12:58:11.795Z,17.79
2024-04-08T13:03:17.292Z,17.80
2024-04-08T13:08:23.266Z,17.79
2024-04-08T13:13:31.355Z,17.79
2024-04-08T13:18:36.842Z,17.78
2024-04-08T13:23:42.815Z,17.78
2024-04-08T13:28:50.929Z,17.77
2024-04-08T13:33:56.521Z,17.77
2024-04-08T13:39:02.118Z,17.78
2024-04-08T13:44:10.611Z,17.78
2024-04-08T13:49:16.017Z,17.76
2024-04-08T13:54:21.483Z,17.77
2024-04-08T13:59:29.570Z,17.77
2024-04-08T14:04:35.052Z,17.76
2024-04-08T14:09:40.534Z,17.76
2024-04-08T14:14:48.689Z,17.75
2024-04-08T14:19:54.219Z,17.76
2024-04-08T14:24:59.734Z,17.74
2024-04-08T14:30:09.552Z,17.74
2024-04-08T14:35:15.016Z,17.74
2024-04-08T14:40:21.065Z,17.75
2024-04-08T14:45:29.916Z,17.74
2024-04-08T14:50:35.659Z,17.73
2024-04-08T14:55:42.379Z,17.74
2024-04-08T15:00:50.768Z,17.73
2024-04-08T15:05:56.747Z,17.73
2024-04-08T15:11:05.327Z,17.74
2024-04-08T15:16:13.659Z,17.73
2024-04-08T15:21:20.777Z,17.73
2024-04-08T15:26:26.197Z,17.74
2024-04-08T15:31:34.255Z,17.73
2024-04-08T15:36:40.108Z,17.73
2024-04-08T15:41:45.547Z,17.72
2024-04-08T15:46:54.457Z,17.71
2024-04-08T15:52:00.474Z,17.73
2024-04-08T15:57:07.766Z,17.72
2024-04-08T16:02:17.374Z,17.72
2024-04-08T16:07:23.430Z,17.71
2024-04-08T16:12:32.069Z,17.71
2024-04-08T16:17:42.131Z,17.72
2024-04-08T16:23:02.078Z,17.71
2024-04-08T16:28:13.510Z,17.70
2024-04-08T16:33:21.781Z,17.71
2024-04-08T16:38:27.368Z,17.69
2024-04-08T16:43:33.168Z,17.68
2024-04-08T16:48:41.551Z,17.69
2024-04-08T16:53:47.080Z,17.68
2024-04-08T16:58:54.074Z,17.67
2024-04-08T17:04:05.511Z,17.67
2024-04-08T17:09:12.058Z,17.66
2024-04-08T17:14:17.847Z,17.66
2024-04-08T17:19:26.044Z,17.65
2024-04-08T17:24:31.787Z,17.65
2024-04-08T17:29:37.483Z,17.65
2024-04-08T17:34:45.593Z,17.63
2024-04-08T17:39:51.045Z,17.64
2024-04-08T17:44:56.493Z,17.61
2024-04-08T17:50:05.213Z,17.63
2024-04-08T17:55:10.680Z,17.62
2024-04-08T18:00:16.763Z,17.62
2024-04-08T18:05:24.986Z,17.60
2024-04-08T18:10:30.836Z,17.60
2024-04-08T18:15:37.453Z,17.60
2024-04-08T18:20:45.653Z,17.59
2024-04-08T18:25:58.108Z,17.57
2024-04-08T18:31:05.495Z,17.58
2024-04-08T18:36:14.331Z,17.59
2024-04-08T18:41:20.069Z,17.59
2024-04-08T18:46:26.454Z,17.57
2024-04-08T18:51:34.870Z,17.57
2024-04-08T18:56:40.324Z,17.57
2024-04-08T19:01:45.789Z,17.56
2024-04-08T19:06:53.835Z,17.54
2024-04-08T19:11:59.716Z,17.54
2024-04-08T19:17:05.253Z,17.54
2024-04-08T19:22:13.743Z,17.55
2024-04-08T19:27:19.456Z,17.52
2024-04-08T19:32:24.985Z,17.53
2024-04-08T19:37:33.215Z,17.54
2024-04-08T19:42:38.744Z,17.53
2024-04-08T19:47:44.688Z,17.52
2024-04-08T19:52:54.174Z,17.51
2024-04-08T19:57:59.890Z,17.51
2024-04-08T20:03:05.687Z,17.51
2024-04-08T20:08:13.759Z,17.50
2024-04-08T20:13:19.244Z,17.49
2024-04-08T20:18:24.868Z,17.50
2024-04-08T20:23:32.988Z,17.49
2024-04-08T20:28:38.831Z,17.48
2024-04-08T20:33:44.717Z,17.48
2024-04-08T20:38:53.429Z,17.48
2024-04-08T20:43:58.943Z,17.47
2024-04-08T20:49:04.776Z,17.46
2024-04-08T20:54:13.255Z,17.46
2024-04-08T20:59:19.015Z,17.45
2024-04-08T21:04:24.525Z,17.45
2024-04-08T21:09:37.241Z,17.45
2024-04-08T21:14:43.124Z,17.45
2024-04-08T21:19:48.955Z,17.44
2024-04-08T21:24:57.010Z,17.43
2024-04-08T21:30:02.606Z,17.42
2024-04-08T21:35:08.472Z,17.42
2024-04-08T21:40:17.212Z,17.42
2024-04-08T21:45:22.696Z,17.42
2024-04-08T21:50:28.207Z,17.41
2024-04-08T21:55:36.691Z,17.40
2024-04-08T22:00:44.945Z,17.40
2024-04-08T22:05:50.712Z,17.40
2024-04-08T22:10:59.852Z,17.39
2024-04-08T22:16:06.395Z,17.38
2024-04-08T22:21:11.921Z,17.39
2024-04-08T22:26:20.051Z,17.38
2024-04-08T22:31:25.518Z,17.38
2024-04-08T22:36:30.993Z,17.37
2024-04-08T22:41:44.748Z,17.36
2024-04-08T22:46:57.653Z,17.36
2024-04-08T22:52:03.152Z,17.35
2024-04-08T22:57:12.037Z,17.35
2024-04-08T23:02:17.509Z,17.35
2024-04-08T23:07:23.285Z,17.34
2024-04-08T23:12:32.017Z,17.34
2024-04-08T23:17:38.097Z,17.34
2024-04-08T23:22:43.559Z,17.34
2024-04-08T23:27:52.490Z,17.32
2024-04-08T23:33:00.979Z,17.30
2024-04-08T23:38:07.327Z,17.31
2024-04-08T23:43:15.605Z,17.32
2024-04-08T23:48:21.126Z,17.32
2024-04-08T23:53:26.968Z,17.31
2024-04-08T23:58:35.785Z,17.30
